sensor_id;sensor_type;location;lat;lon;timestamp;P1;durP1;ratioP1;P2;durP2;ratioP2
67841;SDS011;54642;59.126;37.876;2023-01-04T00:01:06;3.95;;;2.70;;
67841;SDS011;54642;59.126;37.876;2023-01-04T00:03:34;3.13;;;1.98;;
67841;SDS011;54642;59.126;37.876;2023-01-04T00:06:01;3.47;;;1.80;;
67841;SDS011;54642;59.126;37.876;2023-01-04T00:08:28;5.80;;;2.53;;
67841;SDS011;54642;59.126;37.876;2023-01-04T00:11:05;2.95;;;1.73;;
67841;SDS011;54642;59.126;37.876;2023-01-04T00:13:34;3.50;;;1.95;;
67841;SDS011;54642;59.126;37.876;2023-01-04T00:16:05;3.65;;;2.20;;
67841;SDS011;54642;59.126;37.876;2023-01-04T00:21:09;6.47;;;2.53;;
67841;SDS011;54642;59.126;37.876;2023-01-04T00:23:36;7.85;;;3.90;;
67841;SDS011;54642;59.126;37.876;2023-01-04T00:26:06;11.18;;;5.28;;
67841;SDS011;54642;59.126;37.876;2023-01-04T00:28:33;6.03;;;3.45;;
67841;SDS011;54642;59.126;37.876;2023-01-04T00:31:06;5.18;;;3.08;;
67841;SDS011;54642;59.126;37.876;2023-01-04T00:33:34;3.40;;;2.40;;
67841;SDS011;54642;59.126;37.876;2023-01-04T00:36:07;3.22;;;1.90;;
67841;SDS011;54642;59.126;37.876;2023-01-04T00:38:35;2.55;;;2.03;;
67841;SDS011;54642;59.126;37.876;2023-01-04T00:41:02;2.33;;;1.88;;
67841;SDS011;54642;59.126;37.876;2023-01-04T00:43:29;4.47;;;2.45;;
67841;SDS011;54642;59.126;37.876;2023-01-04T00:48:22;9.13;;;4.28;;
67841;SDS011;54642;59.126;37.876;2023-01-04T00:50:48;7.25;;;3.08;;
67841;SDS011;54642;59.126;37.876;2023-01-04T00:53:15;5.40;;;2.50;;
67841;SDS011;54642;59.126;37.876;2023-01-04T00:55:42;15.93;;;6.43;;
67841;SDS011;54642;59.126;37.876;2023-01-04T00:58:08;10.77;;;5.47;;
67841;SDS011;54642;59.126;37.876;2023-01-04T01:00:35;5.47;;;2.80;;
67841;SDS011;54642;59.126;37.876;2023-01-04T01:03:01;3.15;;;2.10;;
67841;SDS011;54642;59.126;37.876;2023-01-04T01:05:27;13.45;;;6.47;;
67841;SDS011;54642;59.126;37.876;2023-01-04T01:07:53;5.88;;;2.88;;
67841;SDS011;54642;59.126;37.876;2023-01-04T01:10:19;7.90;;;2.42;;
67841;SDS011;54642;59.126;37.876;2023-01-04T01:12:45;3.47;;;2.05;;
67841;SDS011;54642;59.126;37.876;2023-01-04T01:15:11;3.83;;;1.85;;
67841;SDS011;54642;59.126;37.876;2023-01-04T01:17:37;3.17;;;1.33;;
67841;SDS011;54642;59.126;37.876;2023-01-04T01:20:04;2.55;;;1.70;;
67841;SDS011;54642;59.126;37.876;2023-01-04T01:22:31;4.72;;;2.58;;
67841;SDS011;54642;59.126;37.876;2023-01-04T01:24:59;1.80;;;1.35;;
67841;SDS011;54642;59.126;37.876;2023-01-04T01:27:25;8.10;;;1.80;;
67841;SDS011;54642;59.126;37.876;2023-01-04T01:29:52;8.20;;;2.97;;
67841;SDS011;54642;59.126;37.876;2023-01-04T01:32:18;9.55;;;5.07;;
67841;SDS011;54642;59.126;37.876;2023-01-04T01:34:44;3.15;;;1.50;;
67841;SDS011;54642;59.126;37.876;2023-01-04T01:37:10;18.88;;;4.85;;
67841;SDS011;54642;59.126;37.876;2023-01-04T01:39:35;38.08;;;10.18;;
67841;SDS011;54642;59.126;37.876;2023-01-04T01:42:01;22.48;;;7.53;;
67841;SDS011;54642;59.126;37.876;2023-01-04T01:47:07;5.13;;;2.42;;
67841;SDS011;54642;59.126;37.876;2023-01-04T01:49:41;9.75;;;3.40;;
67841;SDS011;54642;59.126;37.876;2023-01-04T01:52:13;7.18;;;2.70;;
67841;SDS011;54642;59.126;37.876;2023-01-04T01:54:45;9.75;;;2.50;;
67841;SDS011;54642;59.126;37.876;2023-01-04T01:57:16;4.90;;;2.28;;
67841;SDS011;54642;59.126;37.876;2023-01-04T01:59:45;21.75;;;7.38;;
67841;SDS011;54642;59.126;37.876;2023-01-04T02:02:13;13.60;;;5.25;;
67841;SDS011;54642;59.126;37.876;2023-01-04T02:04:39;23.17;;;4.78;;
67841;SDS011;54642;59.126;37.876;2023-01-04T02:07:09;14.10;;;3.53;;
67841;SDS011;54642;59.126;37.876;2023-01-04T02:09:37;11.27;;;3.35;;
67841;SDS011;54642;59.126;37.876;2023-01-04T02:12:09;14.90;;;4.57;;
67841;SDS011;54642;59.126;37.876;2023-01-04T02:14:36;5.35;;;2.72;;
67841;SDS011;54642;59.126;37.876;2023-01-04T02:44:42;19.42;;;9.32;;
67841;SDS011;54642;59.126;37.876;2023-01-04T02:47:28;17.92;;;7.57;;
67841;SDS011;54642;59.126;37.876;2023-01-04T02:50:21;32.58;;;11.93;;
67841;SDS011;54642;59.126;37.876;2023-01-04T02:55:25;47.95;;;16.95;;
67841;SDS011;54642;59.126;37.876;2023-01-04T02:58:23;39.33;;;14.18;;
67841;SDS011;54642;59.126;37.876;2023-01-04T03:06:57;20.02;;;8.75;;
67841;SDS011;54642;59.126;37.876;2023-01-04T03:09:33;42.08;;;14.63;;
67841;SDS011;54642;59.126;37.876;2023-01-04T03:12:03;41.30;;;14.57;;
67841;SDS011;54642;59.126;37.876;2023-01-04T03:14:54;25.30;;;8.77;;
67841;SDS011;54642;59.126;37.876;2023-01-04T03:17:33;16.58;;;8.07;;
67841;SDS011;54642;59.126;37.876;2023-01-04T03:20:08;29.00;;;13.63;;
67841;SDS011;54642;59.126;37.876;2023-01-04T03:22:37;42.88;;;15.68;;
67841;SDS011;54642;59.126;37.876;2023-01-04T03:25:30;64.55;;;20.90;;
67841;SDS011;54642;59.126;37.876;2023-01-04T03:28:29;39.85;;;15.65;;
67841;SDS011;54642;59.126;37.876;2023-01-04T03:31:39;33.60;;;12.00;;
67841;SDS011;54642;59.126;37.876;2023-01-04T03:34:27;48.30;;;11.23;;
67841;SDS011;54642;59.126;37.876;2023-01-04T03:37:16;35.17;;;10.45;;
67841;SDS011;54642;59.126;37.876;2023-01-04T03:45:47;38.47;;;10.52;;
67841;SDS011;54642;59.126;37.876;2023-01-04T03:48:42;24.08;;;12.15;;
67841;SDS011;54642;59.126;37.876;2023-01-04T03:53:55;46.35;;;14.27;;
67841;SDS011;54642;59.126;37.876;2023-01-04T03:56:28;26.52;;;9.20;;
67841;SDS011;54642;59.126;37.876;2023-01-04T03:58:57;39.08;;;9.63;;
67841;SDS011;54642;59.126;37.876;2023-01-04T04:01:25;33.72;;;8.65;;
67841;SDS011;54642;59.126;37.876;2023-01-04T04:03:52;29.20;;;7.32;;
67841;SDS011;54642;59.126;37.876;2023-01-04T04:09:21;40.42;;;16.85;;
67841;SDS011;54642;59.126;37.876;2023-01-04T04:11:47;31.02;;;10.23;;
67841;SDS011;54642;59.126;37.876;2023-01-04T04:16:39;108.28;;;38.15;;
67841;SDS011;54642;59.126;37.876;2023-01-04T04:19:05;148.52;;;51.40;;
67841;SDS011;54642;59.126;37.876;2023-01-04T04:21:31;142.98;;;51.80;;
67841;SDS011;54642;59.126;37.876;2023-01-04T04:23:57;173.60;;;67.40;;
67841;SDS011;54642;59.126;37.876;2023-01-04T04:26:23;88.88;;;32.95;;
67841;SDS011;54642;59.126;37.876;2023-01-04T04:28:50;25.52;;;8.27;;
67841;SDS011;54642;59.126;37.876;2023-01-04T04:31:15;16.52;;;5.75;;
67841;SDS011;54642;59.126;37.876;2023-01-04T04:33:42;13.38;;;7.22;;
67841;SDS011;54642;59.126;37.876;2023-01-04T04:36:08;18.70;;;11.27;;
67841;SDS011;54642;59.126;37.876;2023-01-04T04:38:34;23.17;;;7.05;;
67841;SDS011;54642;59.126;37.876;2023-01-04T04:43:52;9.20;;;6.25;;
67841;SDS011;54642;59.126;37.876;2023-01-04T04:46:18;4.20;;;2.67;;
67841;SDS011;54642;59.126;37.876;2023-01-04T04:48:44;14.75;;;4.85;;
67841;SDS011;54642;59.126;37.876;2023-01-04T04:51:10;9.57;;;3.92;;
67841;SDS011;54642;59.126;37.876;2023-01-04T04:53:36;21.65;;;6.45;;
67841;SDS011;54642;59.126;37.876;2023-01-04T04:56:01;8.25;;;3.85;;
67841;SDS011;54642;59.126;37.876;2023-01-04T04:58:27;12.18;;;4.38;;
67841;SDS011;54642;59.126;37.876;2023-01-04T05:00:53;22.23;;;8.07;;
67841;SDS011;54642;59.126;37.876;2023-01-04T05:03:19;30.00;;;10.07;;
67841;SDS011;54642;59.126;37.876;2023-01-04T05:05:45;46.05;;;14.13;;
67841;SDS011;54642;59.126;37.876;2023-01-04T05:08:11;51.90;;;14.50;;
67841;SDS011;54642;59.126;37.876;2023-01-04T05:10:37;34.45;;;11.18;;
67841;SDS011;54642;59.126;37.876;2023-01-04T05:13:03;33.78;;;10.10;;
67841;SDS011;54642;59.126;37.876;2023-01-04T05:15:41;28.20;;;9.70;;
67841;SDS011;54642;59.126;37.876;2023-01-04T05:18:09;23.83;;;8.38;;
67841;SDS011;54642;59.126;37.876;2023-01-04T05:20:37;29.27;;;10.93;;
67841;SDS011;54642;59.126;37.876;2023-01-04T05:23:03;30.88;;;12.20;;
67841;SDS011;54642;59.126;37.876;2023-01-04T05:25:30;29.23;;;10.80;;
67841;SDS011;54642;59.126;37.876;2023-01-04T05:27:56;16.75;;;7.43;;
67841;SDS011;54642;59.126;37.876;2023-01-04T05:30:22;29.27;;;13.23;;
67841;SDS011;54642;59.126;37.876;2023-01-04T05:33:07;24.77;;;10.25;;
67841;SDS011;54642;59.126;37.876;2023-01-04T05:35:33;24.92;;;10.68;;
67841;SDS011;54642;59.126;37.876;2023-01-04T05:40:25;18.52;;;7.68;;
67841;SDS011;54642;59.126;37.876;2023-01-04T05:42:52;17.95;;;8.57;;
67841;SDS011;54642;59.126;37.876;2023-01-04T05:45:18;49.85;;;12.48;;
67841;SDS011;54642;59.126;37.876;2023-01-04T05:47:47;45.65;;;12.63;;
67841;SDS011;54642;59.126;37.876;2023-01-04T05:50:15;39.40;;;13.25;;
67841;SDS011;54642;59.126;37.876;2023-01-04T05:52:42;28.08;;;11.02;;
67841;SDS011;54642;59.126;37.876;2023-01-04T05:55:08;36.63;;;12.27;;
67841;SDS011;54642;59.126;37.876;2023-01-04T05:57:34;35.38;;;12.90;;
67841;SDS011;54642;59.126;37.876;2023-01-04T06:00:00;33.88;;;13.63;;
67841;SDS011;54642;59.126;37.876;2023-01-04T06:02:27;35.55;;;14.57;;
67841;SDS011;54642;59.126;37.876;2023-01-04T06:04:54;50.03;;;19.98;;
67841;SDS011;54642;59.126;37.876;2023-01-04T06:07:20;46.17;;;18.60;;
67841;SDS011;54642;59.126;37.876;2023-01-04T06:09:47;48.33;;;17.50;;
67841;SDS011;54642;59.126;37.876;2023-01-04T06:12:12;76.38;;;29.75;;
67841;SDS011;54642;59.126;37.876;2023-01-04T06:14:39;37.53;;;14.82;;
67841;SDS011;54642;59.126;37.876;2023-01-04T06:17:05;22.90;;;9.52;;
67841;SDS011;54642;59.126;37.876;2023-01-04T06:19:32;35.78;;;13.73;;
67841;SDS011;54642;59.126;37.876;2023-01-04T06:24:24;19.75;;;8.20;;
67841;SDS011;54642;59.126;37.876;2023-01-04T06:29:16;20.73;;;5.75;;
67841;SDS011;54642;59.126;37.876;2023-01-04T06:31:42;24.65;;;8.57;;
67841;SDS011;54642;59.126;37.876;2023-01-04T06:34:11;18.00;;;8.35;;
67841;SDS011;54642;59.126;37.876;2023-01-04T06:36:38;17.00;;;10.50;;
67841;SDS011;54642;59.126;37.876;2023-01-04T06:39:04;19.17;;;7.53;;
67841;SDS011;54642;59.126;37.876;2023-01-04T06:41:30;15.88;;;6.60;;
67841;SDS011;54642;59.126;37.876;2023-01-04T06:43:56;21.80;;;9.50;;
67841;SDS011;54642;59.126;37.876;2023-01-04T06:46:22;12.05;;;5.35;;
67841;SDS011;54642;59.126;37.876;2023-01-04T06:49:06;7.20;;;3.13;;
67841;SDS011;54642;59.126;37.876;2023-01-04T06:51:32;11.55;;;5.10;;
67841;SDS011;54642;59.126;37.876;2023-01-04T06:53:58;6.95;;;3.20;;
67841;SDS011;54642;59.126;37.876;2023-01-04T06:56:24;9.93;;;3.85;;
67841;SDS011;54642;59.126;37.876;2023-01-04T06:58:50;23.58;;;6.97;;
67841;SDS011;54642;59.126;37.876;2023-01-04T07:01:16;31.27;;;6.93;;
67841;SDS011;54642;59.126;37.876;2023-01-04T07:03:42;27.92;;;9.27;;
67841;SDS011;54642;59.126;37.876;2023-01-04T07:06:08;16.77;;;8.98;;
67841;SDS011;54642;59.126;37.876;2023-01-04T07:08:35;30.38;;;9.50;;
67841;SDS011;54642;59.126;37.876;2023-01-04T07:13:26;24.05;;;7.22;;
67841;SDS011;54642;59.126;37.876;2023-01-04T07:15:53;30.58;;;7.88;;
67841;SDS011;54642;59.126;37.876;2023-01-04T07:18:18;29.35;;;13.55;;
67841;SDS011;54642;59.126;37.876;2023-01-04T07:20:44;30.02;;;14.20;;
67841;SDS011;54642;59.126;37.876;2023-01-04T07:23:10;38.78;;;12.82;;
67841;SDS011;54642;59.126;37.876;2023-01-04T07:25:36;32.00;;;11.15;;
67841;SDS011;54642;59.126;37.876;2023-01-04T07:28:02;36.45;;;10.32;;
67841;SDS011;54642;59.126;37.876;2023-01-04T07:30:28;19.38;;;7.72;;
67841;SDS011;54642;59.126;37.876;2023-01-04T07:32:54;11.35;;;6.38;;
67841;SDS011;54642;59.126;37.876;2023-01-04T07:35:21;18.80;;;6.72;;
67841;SDS011;54642;59.126;37.876;2023-01-04T07:37:47;17.02;;;7.82;;
67841;SDS011;54642;59.126;37.876;2023-01-04T07:40:14;21.73;;;8.50;;
67841;SDS011;54642;59.126;37.876;2023-01-04T07:42:40;19.77;;;8.73;;
67841;SDS011;54642;59.126;37.876;2023-01-04T07:45:06;18.85;;;6.30;;
67841;SDS011;54642;59.126;37.876;2023-01-04T07:47:32;9.50;;;5.35;;
67841;SDS011;54642;59.126;37.876;2023-01-04T07:49:58;11.60;;;6.25;;
67841;SDS011;54642;59.126;37.876;2023-01-04T07:52:25;26.15;;;7.57;;
67841;SDS011;54642;59.126;37.876;2023-01-04T07:54:51;14.30;;;6.65;;
67841;SDS011;54642;59.126;37.876;2023-01-04T07:59:43;10.73;;;5.88;;
67841;SDS011;54642;59.126;37.876;2023-01-04T08:02:12;28.30;;;4.53;;
67841;SDS011;54642;59.126;37.876;2023-01-04T08:04:38;15.55;;;4.28;;
67841;SDS011;54642;59.126;37.876;2023-01-04T08:07:04;8.77;;;4.13;;
67841;SDS011;54642;59.126;37.876;2023-01-04T08:09:30;29.75;;;9.00;;
67841;SDS011;54642;59.126;37.876;2023-01-04T08:14:22;14.75;;;5.30;;
67841;SDS011;54642;59.126;37.876;2023-01-04T08:16:48;13.43;;;4.35;;
67841;SDS011;54642;59.126;37.876;2023-01-04T08:19:15;29.05;;;6.15;;
67841;SDS011;54642;59.126;37.876;2023-01-04T08:21:43;20.35;;;5.15;;
67841;SDS011;54642;59.126;37.876;2023-01-04T08:24:13;25.83;;;6.50;;
67841;SDS011;54642;59.126;37.876;2023-01-04T08:26:41;13.27;;;3.85;;
67841;SDS011;54642;59.126;37.876;2023-01-04T08:29:08;8.75;;;4.05;;
67841;SDS011;54642;59.126;37.876;2023-01-04T08:31:34;32.75;;;6.38;;
67841;SDS011;54642;59.126;37.876;2023-01-04T08:34:01;21.15;;;5.30;;
67841;SDS011;54642;59.126;37.876;2023-01-04T08:36:30;21.60;;;6.75;;
67841;SDS011;54642;59.126;37.876;2023-01-04T08:38:59;27.65;;;6.57;;
67841;SDS011;54642;59.126;37.876;2023-01-04T08:41:31;10.95;;;5.53;;
67841;SDS011;54642;59.126;37.876;2023-01-04T08:44:15;12.93;;;4.60;;
67841;SDS011;54642;59.126;37.876;2023-01-04T08:46:48;13.68;;;5.30;;
67841;SDS011;54642;59.126;37.876;2023-01-04T08:49:15;11.68;;;5.78;;
67841;SDS011;54642;59.126;37.876;2023-01-04T08:51:42;12.20;;;4.90;;
67841;SDS011;54642;59.126;37.876;2023-01-04T08:56:35;5.38;;;3.17;;
67841;SDS011;54642;59.126;37.876;2023-01-04T08:59:01;5.03;;;3.25;;
67841;SDS011;54642;59.126;37.876;2023-01-04T09:01:27;8.15;;;3.30;;
67841;SDS011;54642;59.126;37.876;2023-01-04T09:03:54;6.25;;;3.40;;
67841;SDS011;54642;59.126;37.876;2023-01-04T09:06:21;5.13;;;3.30;;
67841;SDS011;54642;59.126;37.876;2023-01-04T09:08:47;4.45;;;3.38;;
67841;SDS011;54642;59.126;37.876;2023-01-04T09:11:14;4.32;;;3.20;;
67841;SDS011;54642;59.126;37.876;2023-01-04T09:13:42;6.55;;;3.50;;
67841;SDS011;54642;59.126;37.876;2023-01-04T09:16:09;4.70;;;2.45;;
67841;SDS011;54642;59.126;37.876;2023-01-04T09:18:40;7.25;;;3.42;;
67841;SDS011;54642;59.126;37.876;2023-01-04T09:21:06;8.15;;;3.22;;
67841;SDS011;54642;59.126;37.876;2023-01-04T09:23:37;10.25;;;3.85;;
67841;SDS011;54642;59.126;37.876;2023-01-04T09:26:14;9.15;;;3.38;;
67841;SDS011;54642;59.126;37.876;2023-01-04T09:28:42;13.13;;;3.40;;
67841;SDS011;54642;59.126;37.876;2023-01-04T09:33:38;5.68;;;3.55;;
67841;SDS011;54642;59.126;37.876;2023-01-04T09:36:05;6.88;;;6.13;;
67841;SDS011;54642;59.126;37.876;2023-01-04T09:38:32;7.80;;;3.03;;
67841;SDS011;54642;59.126;37.876;2023-01-04T09:43:50;7.78;;;6.30;;
67841;SDS011;54642;59.126;37.876;2023-01-04T09:46:35;6.03;;;3.83;;
67841;SDS011;54642;59.126;37.876;2023-01-04T09:51:55;4.88;;;3.85;;
67841;SDS011;54642;59.126;37.876;2023-01-04T09:54:23;4.45;;;2.58;;
67841;SDS011;54642;59.126;37.876;2023-01-04T09:56:57;4.28;;;2.72;;
67841;SDS011;54642;59.126;37.876;2023-01-04T09:59:26;4.32;;;2.63;;
67841;SDS011;54642;59.126;37.876;2023-01-04T10:02:03;5.00;;;3.70;;
67841;SDS011;54642;59.126;37.876;2023-01-04T10:04:46;7.50;;;5.30;;
67841;SDS011;54642;59.126;37.876;2023-01-04T10:07:20;9.15;;;4.15;;
67841;SDS011;54642;59.126;37.876;2023-01-04T10:09:51;5.90;;;3.58;;
67841;SDS011;54642;59.126;37.876;2023-01-04T10:12:23;4.50;;;2.83;;
67841;SDS011;54642;59.126;37.876;2023-01-04T10:26:11;7.68;;;3.28;;
67841;SDS011;54642;59.126;37.876;2023-01-04T10:31:28;10.20;;;5.32;;
67841;SDS011;54642;59.126;37.876;2023-01-04T10:34:02;10.27;;;3.85;;
67841;SDS011;54642;59.126;37.876;2023-01-04T10:36:41;7.03;;;2.83;;
67841;SDS011;54642;59.126;37.876;2023-01-04T10:39:11;4.15;;;3.08;;
67841;SDS011;54642;59.126;37.876;2023-01-04T10:41:54;8.25;;;3.38;;
67841;SDS011;54642;59.126;37.876;2023-01-04T10:49:43;5.22;;;4.00;;
67841;SDS011;54642;59.126;37.876;2023-01-04T10:52:15;11.25;;;4.47;;
67841;SDS011;54642;59.126;37.876;2023-01-04T10:54:52;12.30;;;5.18;;
67841;SDS011;54642;59.126;37.876;2023-01-04T11:02:34;26.13;;;8.45;;
67841;SDS011;54642;59.126;37.876;2023-01-04T11:05:11;8.73;;;3.90;;
67841;SDS011;54642;59.126;37.876;2023-01-04T11:07:44;9.98;;;5.22;;
67841;SDS011;54642;59.126;37.876;2023-01-04T11:10:13;8.98;;;3.80;;
67841;SDS011;54642;59.126;37.876;2023-01-04T11:12:44;11.25;;;5.38;;
67841;SDS011;54642;59.126;37.876;2023-01-04T11:15:10;10.23;;;3.80;;
67841;SDS011;54642;59.126;37.876;2023-01-04T11:17:36;11.70;;;4.38;;
67841;SDS011;54642;59.126;37.876;2023-01-04T11:20:03;8.20;;;3.17;;
67841;SDS011;54642;59.126;37.876;2023-01-04T11:22:34;8.65;;;3.97;;
67841;SDS011;54642;59.126;37.876;2023-01-04T11:25:23;8.85;;;3.67;;
67841;SDS011;54642;59.126;37.876;2023-01-04T11:30:52;7.70;;;5.32;;
67841;SDS011;54642;59.126;37.876;2023-01-04T11:33:25;10.38;;;4.30;;
67841;SDS011;54642;59.126;37.876;2023-01-04T11:35:52;7.53;;;4.32;;
67841;SDS011;54642;59.126;37.876;2023-01-04T11:38:25;19.77;;;6.82;;
67841;SDS011;54642;59.126;37.876;2023-01-04T11:43:31;4.35;;;2.20;;
67841;SDS011;54642;59.126;37.876;2023-01-04T11:46:00;7.97;;;3.45;;
67841;SDS011;54642;59.126;37.876;2023-01-04T11:48:45;10.88;;;5.78;;
67841;SDS011;54642;59.126;37.876;2023-01-04T11:54:01;6.72;;;3.85;;
67841;SDS011;54642;59.126;37.876;2023-01-04T11:56:30;11.02;;;5.38;;
67841;SDS011;54642;59.126;37.876;2023-01-04T11:59:02;10.23;;;4.47;;
67841;SDS011;54642;59.126;37.876;2023-01-04T12:04:15;10.43;;;4.40;;
67841;SDS011;54642;59.126;37.876;2023-01-04T12:06:55;6.82;;;6.15;;
67841;SDS011;54642;59.126;37.876;2023-01-04T12:09:24;7.32;;;3.88;;
67841;SDS011;54642;59.126;37.876;2023-01-04T12:11:51;9.88;;;5.43;;
67841;SDS011;54642;59.126;37.876;2023-01-04T12:14:30;10.07;;;5.60;;
67841;SDS011;54642;59.126;37.876;2023-01-04T12:17:05;22.30;;;9.20;;
67841;SDS011;54642;59.126;37.876;2023-01-04T12:19:34;9.93;;;5.15;;
67841;SDS011;54642;59.126;37.876;2023-01-04T12:22:02;18.90;;;4.93;;
67841;SDS011;54642;59.126;37.876;2023-01-04T12:24:44;5.72;;;3.30;;
67841;SDS011;54642;59.126;37.876;2023-01-04T12:27:12;17.58;;;5.63;;
67841;SDS011;54642;59.126;37.876;2023-01-04T12:29:43;25.20;;;8.45;;
67841;SDS011;54642;59.126;37.876;2023-01-04T12:34:45;14.02;;;7.90;;
67841;SDS011;54642;59.126;37.876;2023-01-04T12:37:57;14.63;;;5.15;;
67841;SDS011;54642;59.126;37.876;2023-01-04T12:45:41;9.32;;;4.13;;
67841;SDS011;54642;59.126;37.876;2023-01-04T12:51:18;6.70;;;3.95;;
67841;SDS011;54642;59.126;37.876;2023-01-04T12:53:52;10.25;;;4.13;;
67841;SDS011;54642;59.126;37.876;2023-01-04T12:56:20;9.00;;;3.85;;
67841;SDS011;54642;59.126;37.876;2023-01-04T12:59:05;9.32;;;4.50;;
67841;SDS011;54642;59.126;37.876;2023-01-04T13:01:36;8.90;;;3.40;;
67841;SDS011;54642;59.126;37.876;2023-01-04T13:04:25;16.40;;;5.50;;
67841;SDS011;54642;59.126;37.876;2023-01-04T13:07:07;10.40;;;4.88;;
67841;SDS011;54642;59.126;37.876;2023-01-04T13:09:44;7.30;;;3.38;;
67841;SDS011;54642;59.126;37.876;2023-01-04T13:15:00;12.57;;;4.63;;
67841;SDS011;54642;59.126;37.876;2023-01-04T13:17:30;14.38;;;7.60;;
67841;SDS011;54642;59.126;37.876;2023-01-04T13:20:23;13.75;;;6.50;;
67841;SDS011;54642;59.126;37.876;2023-01-04T13:22:52;13.18;;;4.68;;
67841;SDS011;54642;59.126;37.876;2023-01-04T13:25:21;7.68;;;3.42;;
67841;SDS011;54642;59.126;37.876;2023-01-04T13:27:56;8.85;;;4.25;;
67841;SDS011;54642;59.126;37.876;2023-01-04T13:30:28;13.85;;;6.00;;
67841;SDS011;54642;59.126;37.876;2023-01-04T13:32:54;17.58;;;6.15;;
67841;SDS011;54642;59.126;37.876;2023-01-04T13:35:20;22.20;;;8.82;;
67841;SDS011;54642;59.126;37.876;2023-01-04T13:37:47;19.98;;;6.97;;
67841;SDS011;54642;59.126;37.876;2023-01-04T13:48:39;11.75;;;5.95;;
67841;SDS011;54642;59.126;37.876;2023-01-04T13:53:56;13.35;;;6.32;;
67841;SDS011;54642;59.126;37.876;2023-01-04T13:56:25;15.15;;;7.70;;
67841;SDS011;54642;59.126;37.876;2023-01-04T13:58:52;17.35;;;8.38;;
67841;SDS011;54642;59.126;37.876;2023-01-04T14:03:49;10.25;;;4.82;;
67841;SDS011;54642;59.126;37.876;2023-01-04T14:06:16;13.65;;;6.22;;
67841;SDS011;54642;59.126;37.876;2023-01-04T14:11:39;4.63;;;2.88;;
67841;SDS011;54642;59.126;37.876;2023-01-04T14:17:23;11.13;;;4.22;;
67841;SDS011;54642;59.126;37.876;2023-01-04T14:22:53;8.18;;;4.22;;
67841;SDS011;54642;59.126;37.876;2023-01-04T14:33:30;7.22;;;3.75;;
67841;SDS011;54642;59.126;37.876;2023-01-04T14:38:42;10.07;;;3.90;;
67841;SDS011;54642;59.126;37.876;2023-01-04T14:41:20;9.15;;;4.68;;
67841;SDS011;54642;59.126;37.876;2023-01-04T14:43:47;6.63;;;4.53;;
67841;SDS011;54642;59.126;37.876;2023-01-04T14:46:18;9.90;;;6.35;;
67841;SDS011;54642;59.126;37.876;2023-01-04T14:48:45;8.38;;;3.72;;
67841;SDS011;54642;59.126;37.876;2023-01-04T14:51:15;8.18;;;4.03;;
67841;SDS011;54642;59.126;37.876;2023-01-04T14:53:45;14.07;;;5.88;;
67841;SDS011;54642;59.126;37.876;2023-01-04T14:56:12;4.85;;;3.33;;
67841;SDS011;54642;59.126;37.876;2023-01-04T14:58:40;8.45;;;3.83;;
67841;SDS011;54642;59.126;37.876;2023-01-04T15:01:06;15.25;;;6.15;;
67841;SDS011;54642;59.126;37.876;2023-01-04T15:03:33;16.08;;;4.55;;
67841;SDS011;54642;59.126;37.876;2023-01-04T15:05:59;9.52;;;3.42;;
67841;SDS011;54642;59.126;37.876;2023-01-04T15:08:25;9.13;;;3.38;;
67841;SDS011;54642;59.126;37.876;2023-01-04T15:10:51;13.02;;;4.50;;
67841;SDS011;54642;59.126;37.876;2023-01-04T15:13:17;16.92;;;7.95;;
67841;SDS011;54642;59.126;37.876;2023-01-04T15:15:43;117.70;;;40.55;;
67841;SDS011;54642;59.126;37.876;2023-01-04T15:18:09;128.70;;;51.80;;
67841;SDS011;54642;59.126;37.876;2023-01-04T15:20:37;58.42;;;22.73;;
67841;SDS011;54642;59.126;37.876;2023-01-04T15:23:05;22.05;;;8.30;;
67841;SDS011;54642;59.126;37.876;2023-01-04T15:25:31;12.88;;;5.55;;
67841;SDS011;54642;59.126;37.876;2023-01-04T15:27:57;33.40;;;12.82;;
67841;SDS011;54642;59.126;37.876;2023-01-04T15:30:23;41.83;;;16.08;;
67841;SDS011;54642;59.126;37.876;2023-01-04T15:32:49;58.13;;;21.88;;
67841;SDS011;54642;59.126;37.876;2023-01-04T15:35:15;28.27;;;13.35;;
67841;SDS011;54642;59.126;37.876;2023-01-04T15:40:08;12.63;;;7.95;;
67841;SDS011;54642;59.126;37.876;2023-01-04T15:42:35;12.13;;;7.50;;
67841;SDS011;54642;59.126;37.876;2023-01-04T15:45:20;13.15;;;6.78;;
67841;SDS011;54642;59.126;37.876;2023-01-04T15:47:51;7.72;;;5.40;;
67841;SDS011;54642;59.126;37.876;2023-01-04T15:50:18;10.77;;;5.20;;
67841;SDS011;54642;59.126;37.876;2023-01-04T15:52:45;13.70;;;7.72;;
67841;SDS011;54642;59.126;37.876;2023-01-04T15:55:12;7.13;;;4.07;;
67841;SDS011;54642;59.126;37.876;2023-01-04T15:57:38;12.13;;;7.07;;
67841;SDS011;54642;59.126;37.876;2023-01-04T16:00:04;10.25;;;5.60;;
67841;SDS011;54642;59.126;37.876;2023-01-04T16:02:37;9.57;;;5.40;;
67841;SDS011;54642;59.126;37.876;2023-01-04T16:05:04;12.18;;;7.53;;
67841;SDS011;54642;59.126;37.876;2023-01-04T16:07:31;9.77;;;6.38;;
67841;SDS011;54642;59.126;37.876;2023-01-04T16:09:57;13.90;;;9.40;;
67841;SDS011;54642;59.126;37.876;2023-01-04T16:12:23;13.38;;;7.70;;
67841;SDS011;54642;59.126;37.876;2023-01-04T16:17:38;11.15;;;5.00;;
67841;SDS011;54642;59.126;37.876;2023-01-04T16:20:05;9.85;;;4.82;;
67841;SDS011;54642;59.126;37.876;2023-01-04T16:22:31;10.50;;;4.90;;
67841;SDS011;54642;59.126;37.876;2023-01-04T16:24:57;12.02;;;7.53;;
67841;SDS011;54642;59.126;37.876;2023-01-04T16:27:23;9.80;;;5.05;;
67841;SDS011;54642;59.126;37.876;2023-01-04T16:29:49;19.55;;;7.07;;
67841;SDS011;54642;59.126;37.876;2023-01-04T16:32:15;16.50;;;8.65;;
67841;SDS011;54642;59.126;37.876;2023-01-04T16:34:41;13.50;;;7.70;;
67841;SDS011;54642;59.126;37.876;2023-01-04T16:37:08;13.30;;;6.75;;
67841;SDS011;54642;59.126;37.876;2023-01-04T16:39:34;10.25;;;4.18;;
67841;SDS011;54642;59.126;37.876;2023-01-04T16:42:00;11.55;;;6.20;;
67841;SDS011;54642;59.126;37.876;2023-01-04T16:44:26;9.35;;;6.13;;
67841;SDS011;54642;59.126;37.876;2023-01-04T16:46:52;15.30;;;6.60;;
67841;SDS011;54642;59.126;37.876;2023-01-04T16:49:18;11.32;;;6.93;;
67841;SDS011;54642;59.126;37.876;2023-01-04T16:51:44;21.02;;;8.30;;
67841;SDS011;54642;59.126;37.876;2023-01-04T16:54:15;13.02;;;7.60;;
67841;SDS011;54642;59.126;37.876;2023-01-04T16:56:43;13.23;;;10.40;;
67841;SDS011;54642;59.126;37.876;2023-01-04T16:59:11;13.23;;;4.95;;
67841;SDS011;54642;59.126;37.876;2023-01-04T17:01:40;7.65;;;5.78;;
67841;SDS011;54642;59.126;37.876;2023-01-04T17:06:35;8.20;;;3.72;;
67841;SDS011;54642;59.126;37.876;2023-01-04T17:09:03;5.32;;;3.67;;
67841;SDS011;54642;59.126;37.876;2023-01-04T17:11:31;12.45;;;4.43;;
67841;SDS011;54642;59.126;37.876;2023-01-04T17:13:59;6.20;;;4.18;;
67841;SDS011;54642;59.126;37.876;2023-01-04T17:16:26;13.13;;;2.65;;
67841;SDS011;54642;59.126;37.876;2023-01-04T17:18:53;17.08;;;4.05;;
67841;SDS011;54642;59.126;37.876;2023-01-04T17:21:23;9.68;;;3.67;;
67841;SDS011;54642;59.126;37.876;2023-01-04T17:23:52;12.43;;;4.53;;
67841;SDS011;54642;59.126;37.876;2023-01-04T17:26:23;10.40;;;3.08;;
67841;SDS011;54642;59.126;37.876;2023-01-04T17:28:51;17.30;;;3.80;;
67841;SDS011;54642;59.126;37.876;2023-01-04T17:31:19;40.63;;;10.68;;
67841;SDS011;54642;59.126;37.876;2023-01-04T17:33:47;38.42;;;6.15;;